createdAt,value
2022-07-30T00:00:48.865Z,72.22
2022-07-30T00:01:48.831Z,72.62
2022-07-30T00:02:48.830Z,72.22
2022-07-30T00:03:48.880Z,72.12
2022-07-30T00:04:48.836Z,72.22
2022-07-30T00:05:48.839Z,72.12
2022-07-30T00:06:48.840Z,72.52
2022-07-30T00:07:48.841Z,72.72
2022-07-30T00:08:48.846Z,73.02
2022-07-30T00:09:48.849Z,72.72
2022-07-30T00:10:48.848Z,72.81
2022-07-30T00:11:48.869Z,72.85
2022-07-30T00:12:48.858Z,73.02
2022-07-30T00:13:48.856Z,72.72
2022-07-30T00:14:48.861Z,73.05
2022-07-30T00:15:48.863Z,73.05
2022-07-30T00:16:48.916Z,73.05
2022-07-30T00:17:49.235Z,72.81
2022-07-30T00:18:48.868Z,72.75
2022-07-30T00:19:48.873Z,73.75
2022-07-30T00:20:48.879Z,73.65
2022-07-30T00:21:48.878Z,73.55
2022-07-30T00:22:48.879Z,73.22
2022-07-30T00:23:51.181Z,73.15
2022-07-30T00:24:48.885Z,73.85
2022-07-30T00:25:48.889Z,74.25
2022-07-30T00:26:48.892Z,73.15
2022-07-30T00:27:48.891Z,72.75
2022-07-30T00:28:48.890Z,73.15
2022-07-30T00:29:48.898Z,73.75
2022-07-30T00:30:48.961Z,73.35
2022-07-30T00:31:48.902Z,73.35
2022-07-30T00:32:48.903Z,74.65
2022-07-30T00:33:48.907Z,73.05
2022-07-30T00:34:48.905Z,73.95
2022-07-30T00:35:48.909Z,73.65
2022-07-30T00:36:48.914Z,74.25
2022-07-30T00:37:48.918Z,74.05
2022-07-30T00:38:48.926Z,74.08
2022-07-30T00:39:48.922Z,73.95
2022-07-30T00:40:48.920Z,74.65
2022-07-30T00:41:48.927Z,74.45
2022-07-30T00:42:48.929Z,73.79
2022-07-30T00:43:48.931Z,74.19
2022-07-30T00:44:48.934Z,74.55
2022-07-30T00:45:48.946Z,74.35
2022-07-30T00:46:48.938Z,74.35
2022-07-30T00:47:48.947Z,74.45
2022-07-30T00:48:48.960Z,74.35
2022-07-30T00:49:48.948Z,73.99
2022-07-30T00:50:48.944Z,74.19
2022-07-30T00:51:48.949Z,74.35
2022-07-30T00:52:48.958Z,74.49
2022-07-30T00:53:48.956Z,74.35
2022-07-30T00:54:48.955Z,74.19
2022-07-30T00:55:48.961Z,74.15
2022-07-30T00:56:48.967Z,73.95
2022-07-30T00:57:48.965Z,74.15
2022-07-30T00:58:48.966Z,73.88
2022-07-30T00:59:48.972Z,74.38
2022-07-30T01:00:49.037Z,74.35
2022-07-30T01:01:49.028Z,75.05
2022-07-30T01:02:48.977Z,74.15
2022-07-30T01:03:48.987Z,75.25
2022-07-30T01:04:48.979Z,74.25
2022-07-30T01:05:48.985Z,74.15
2022-07-30T01:06:48.982Z,74.25
2022-07-30T01:07:48.988Z,74.05
2022-07-30T01:08:48.990Z,74.19
2022-07-30T01:09:48.990Z,73.85
2022-07-30T01:10:48.991Z,74.45
2022-07-30T01:11:48.998Z,74.25
2022-07-30T01:12:49.001Z,74.38
2022-07-30T01:13:48.999Z,74.45
2022-07-30T01:14:49.005Z,74.95
2022-07-30T01:15:49.002Z,74.29
2022-07-30T01:16:49.096Z,74.19
2022-07-30T01:17:49.856Z,74.19
2022-07-30T01:18:49.014Z,74.79
2022-07-30T01:19:49.019Z,74.58
2022-07-30T01:20:49.015Z,74.45
2022-07-30T01:21:49.028Z,74.38
2022-07-30T01:22:49.029Z,74.49
2022-07-30T01:23:49.025Z,74.38
2022-07-30T01:24:49.028Z,75.38
2022-07-30T01:25:49.033Z,74.88
2022-07-30T01:26:49.027Z,75.18
2022-07-30T01:27:49.039Z,74.98
2022-07-30T01:28:49.038Z,74.38
2022-07-30T01:29:49.040Z,75.09
2022-07-30T01:30:50.118Z,74.68
2022-07-30T01:31:49.122Z,74.49
2022-07-30T01:32:49.050Z,74.79
2022-07-30T01:33:49.048Z,74.79
2022-07-30T01:34:49.050Z,74.68
2022-07-30T01:35:49.054Z,75.28
2022-07-30T01:36:49.056Z,74.68
2022-07-30T01:37:49.057Z,74.58
2022-07-30T01:38:49.059Z,74.58
2022-07-30T01:39:49.063Z,74.68
2022-07-30T01:40:49.067Z,74.68
2022-07-30T01:41:49.069Z,74.68
2022-07-30T01:42:49.070Z,75.28
2022-07-30T01:43:49.074Z,74.98
2022-07-30T01:44:49.072Z,74.58
2022-07-30T01:45:49.102Z,74.58
2022-07-30T01:46:49.076Z,75.48
2022-07-30T01:47:49.080Z,75.02
2022-07-30T01:48:49.137Z,75.02
2022-07-30T01:49:49.084Z,75.62
2022-07-30T01:50:49.089Z,74.72
2022-07-30T01:51:49.087Z,74.82
2022-07-30T01:52:49.202Z,75.02
2022-07-30T01:53:49.095Z,74.98
2022-07-30T01:54:49.097Z,75.02
2022-07-30T01:55:49.098Z,75.22
2022-07-30T01:56:49.096Z,75.52
2022-07-30T01:57:49.105Z,75.52
2022-07-30T01:58:49.108Z,76.22
2022-07-30T01:59:49.109Z,75.72
2022-07-30T02:00:49.185Z,76.52
2022-07-30T02:01:49.119Z,76.02
2022-07-30T02:02:49.114Z,76.42
2022-07-30T02:03:49.165Z,76.42
2022-07-30T02:04:49.118Z,76.62
2022-07-30T02:05:49.123Z,76.22
2022-07-30T02:06:49.122Z,76.42
2022-07-30T02:07:49.128Z,76.32
2022-07-30T02:08:49.126Z,76.12
2022-07-30T02:09:49.132Z,77.12
2022-07-30T02:10:49.129Z,76.52
2022-07-30T02:11:49.141Z,76.92
2022-07-30T02:12:49.137Z,76.72
2022-07-30T02:13:49.139Z,76.42
2022-07-30T02:14:49.138Z,77.02
2022-07-30T02:15:49.154Z,76.22
2022-07-30T02:16:49.184Z,76.42
2022-07-30T02:17:49.150Z,76.52
2022-07-30T02:18:49.150Z,76.92
2022-07-30T02:19:49.156Z,76.42
2022-07-30T02:20:49.501Z,76.92
2022-07-30T02:21:50.691Z,77.22
2022-07-30T02:22:49.163Z,76.72
2022-07-30T02:23:49.163Z,76.92
2022-07-30T02:24:49.167Z,76.32
2022-07-30T02:25:49.174Z,77.02
2022-07-30T02:26:49.167Z,76.72
2022-07-30T02:27:49.171Z,76.62
2022-07-30T02:28:49.170Z,76.92
2022-07-30T02:29:49.177Z,77.02
2022-07-30T02:30:49.177Z,76.92
2022-07-30T02:31:49.255Z,76.86
2022-07-30T02:32:49.178Z,76.22
2022-07-30T02:33:49.257Z,76.22
2022-07-30T02:34:49.184Z,77.02
2022-07-30T02:35:49.192Z,76.72
2022-07-30T02:36:49.189Z,77.12
2022-07-30T02:37:49.190Z,77.15
2022-07-30T02:38:49.193Z,76.26
2022-07-30T02:39:49.195Z,76.35
2022-07-30T02:40:49.199Z,76.65
2022-07-30T02:41:49.994Z,77.45
2022-07-30T02:42:49.209Z,77.06
2022-07-30T02:43:49.207Z,76.86
2022-07-30T02:44:49.212Z,77.36
2022-07-30T02:45:49.210Z,77.15
2022-07-30T02:46:49.278Z,76.56
2022-07-30T02:47:49.210Z,76.56
2022-07-30T02:48:49.259Z,77.95
2022-07-30T02:49:49.218Z,77.36
2022-07-30T02:50:49.224Z,77.25
2022-07-30T02:51:49.223Z,77.75
2022-07-30T02:52:49.226Z,77.25
2022-07-30T02:53:51.793Z,77.75
2022-07-30T02:54:49.237Z,77.36
2022-07-30T02:55:49.235Z,77.95
2022-07-30T02:56:49.236Z,77.56
2022-07-30T02:57:49.235Z,77.86
2022-07-30T02:58:49.240Z,78.09
2022-07-30T02:59:49.241Z,77.66
2022-07-30T03:00:49.306Z,77.89
2022-07-30T03:01:49.336Z,77.59
2022-07-30T03:02:49.248Z,77.89
2022-07-30T03:03:49.254Z,77.86
2022-07-30T03:04:49.252Z,77.89
2022-07-30T03:05:49.258Z,77.99
2022-07-30T03:06:49.255Z,77.75
2022-07-30T03:07:49.255Z,77.56
2022-07-30T03:08:49.259Z,77.75
2022-07-30T03:09:52.383Z,77.86
2022-07-30T03:10:49.263Z,77.95
2022-07-30T03:11:49.268Z,77.56
2022-07-30T03:12:49.271Z,77.95
2022-07-30T03:13:49.272Z,77.69
2022-07-30T03:14:49.277Z,77.86
2022-07-30T03:15:49.322Z,77.99
2022-07-30T03:16:49.278Z,78.09
2022-07-30T03:17:49.279Z,77.89
2022-07-30T03:18:49.278Z,77.99
2022-07-30T03:19:49.280Z,77.79
2022-07-30T03:20:49.285Z,77.79
2022-07-30T03:21:49.288Z,77.99
2022-07-30T03:22:49.293Z,78.09
2022-07-30T03:23:49.287Z,78.09
2022-07-30T03:24:49.295Z,78.19
2022-07-30T03:25:49.297Z,78.45
2022-07-30T03:26:49.299Z,78.29
2022-07-30T03:27:49.295Z,78.29
2022-07-30T03:28:49.306Z,78.29
2022-07-30T03:29:49.304Z,78.19
2022-07-30T03:30:49.307Z,78.39
2022-07-30T03:31:49.334Z,78.29
2022-07-30T03:32:49.312Z,78.09
2022-07-30T03:33:49.312Z,78.49
2022-07-30T03:34:49.316Z,78.59
2022-07-30T03:35:49.317Z,78.69
2022-07-30T03:36:49.319Z,78.39
2022-07-30T03:37:49.319Z,78.89
2022-07-30T03:38:49.320Z,78.49
2022-07-30T03:39:49.325Z,78.69
2022-07-30T03:40:49.327Z,78.69
2022-07-30T03:41:49.330Z,78.79
2022-07-30T03:42:49.333Z,78.89
2022-07-30T03:43:49.331Z,79.19
2022-07-30T03:44:49.336Z,78.89
2022-07-30T03:45:49.338Z,79.19
2022-07-30T03:46:49.452Z,78.83
2022-07-30T03:47:49.346Z,78.93
2022-07-30T03:48:49.451Z,78.83
2022-07-30T03:49:49.348Z,79.43
2022-07-30T03:50:49.348Z,79.13
2022-07-30T03:51:49.349Z,79.53
2022-07-30T03:52:49.351Z,79.53
2022-07-30T03:53:49.353Z,79.13
2022-07-30T03:54:49.354Z,79.03
2022-07-30T03:55:49.356Z,78.63
2022-07-30T03:56:49.361Z,79.03
2022-07-30T03:57:49.364Z,79.43
2022-07-30T03:58:49.362Z,79.13
2022-07-30T03:59:49.365Z,79.23
2022-07-30T04:00:49.368Z,79.13
2022-07-30T04:01:49.430Z,79.13
2022-07-30T04:02:49.372Z,78.89
2022-07-30T04:03:49.404Z,79.49
2022-07-30T04:04:49.377Z,79.23
2022-07-30T04:05:49.377Z,79.03
2022-07-30T04:06:49.384Z,78.99
2022-07-30T04:07:49.382Z,79.53
2022-07-30T04:08:49.383Z,79.63
2022-07-30T04:09:49.386Z,79.73
2022-07-30T04:10:49.392Z,79.33
2022-07-30T04:11:49.386Z,79.63
2022-07-30T04:12:49.394Z,79.49
2022-07-30T04:13:49.399Z,79.93
2022-07-30T04:14:49.398Z,79.33
2022-07-30T04:16:37.911Z,79.43
2022-07-30T04:16:40.170Z,79.39
2022-07-30T04:17:34.066Z,79.83
2022-07-30T04:18:33.992Z,79.33
2022-07-30T04:19:33.997Z,79.09
2022-07-30T04:20:33.994Z,79.33
2022-07-30T04:21:33.996Z,79.89
2022-07-30T04:22:34.004Z,80.69
2022-07-30T04:23:33.996Z,80.49
2022-07-30T04:24:34.003Z,79.99
2022-07-30T04:25:34.005Z,79.39
2022-07-30T04:26:34.006Z,79.99
2022-07-30T04:27:34.006Z,79.99
2022-07-30T04:28:34.011Z,80.59
2022-07-30T04:29:34.018Z,80.69
2022-07-30T04:30:34.013Z,80.89
2022-07-30T04:31:34.076Z,80.09
2022-07-30T04:32:34.018Z,79.99
2022-07-30T04:33:34.022Z,80.79
2022-07-30T04:34:34.025Z,80.69
2022-07-30T04:35:51.538Z,80.26
2022-07-30T04:36:34.029Z,79.79
2022-07-30T04:37:34.027Z,79.35
2022-07-30T04:38:34.036Z,80.65
2022-07-30T04:39:34.034Z,79.75
2022-07-30T04:40:34.037Z,79.55
2022-07-30T04:41:48.217Z,79.35
2022-07-30T04:42:34.045Z,79.96
2022-07-30T04:43:34.045Z,79.96
2022-07-30T04:44:34.043Z,79.75
2022-07-30T04:45:34.053Z,79.35
2022-07-30T04:46:34.125Z,78.85
2022-07-30T04:47:34.259Z,79.35
2022-07-30T04:48:34.051Z,80.55
2022-07-30T04:49:34.054Z,79.46
2022-07-30T04:50:34.059Z,79.35
2022-07-30T04:51:34.062Z,79.25
2022-07-30T04:52:34.060Z,79.65
2022-07-30T04:53:34.058Z,79.55
2022-07-30T04:54:34.067Z,79.41
2022-07-30T04:55:34.068Z,79.72
2022-07-30T04:56:34.071Z,81.01
2022-07-30T04:57:34.067Z,79.96
2022-07-30T04:58:34.082Z,79.82
2022-07-30T04:59:34.074Z,80.51
2022-07-30T05:00:37.693Z,79.32
2022-07-30T05:01:40.455Z,79.48
2022-07-30T05:02:34.082Z,80.02
2022-07-30T05:03:34.084Z,80.32
2022-07-30T05:04:34.083Z,80.11
2022-07-30T05:05:34.136Z,78.92
2022-07-30T05:06:34.090Z,79.02
2022-07-30T05:07:34.092Z,79.11
2022-07-30T05:08:34.100Z,80.11
2022-07-30T05:09:34.095Z,80.51
2022-07-30T05:10:34.101Z,80.21
2022-07-30T05:11:34.101Z,80.98
2022-07-30T05:12:34.104Z,81.18
2022-07-30T05:13:38.412Z,81.07
2022-07-30T05:14:34.110Z,80.18
2022-07-30T05:15:37.411Z,79.28
2022-07-30T05:16:34.125Z,79.58
2022-07-30T05:17:34.117Z,79.78
2022-07-30T05:18:34.120Z,79.97
2022-07-30T05:19:34.117Z,80.04
2022-07-30T05:20:34.126Z,79.84
2022-07-30T05:21:34.127Z,79.74
2022-07-30T05:22:34.129Z,80.44
2022-07-30T05:23:34.125Z,80.34
2022-07-30T05:24:34.129Z,80.44
2022-07-30T05:25:34.133Z,80.34
2022-07-30T05:26:34.137Z,80.34
2022-07-30T05:27:34.134Z,80.34
2022-07-30T05:28:34.145Z,80.54
2022-07-30T05:29:34.150Z,79.90
2022-07-30T05:30:34.146Z,80.24
2022-07-30T05:31:34.209Z,79.50
2022-07-30T05:32:34.150Z,79.30
2022-07-30T05:33:38.820Z,78.41
2022-07-30T05:34:34.154Z,78.90
2022-07-30T05:35:34.154Z,79.90
2022-07-30T05:36:34.157Z,79.30
2022-07-30T05:37:34.157Z,79.10
2022-07-30T05:38:34.167Z,80.10
2022-07-30T05:39:34.166Z,79.30
2022-07-30T05:40:34.166Z,78.80
2022-07-30T05:41:34.169Z,80.00
2022-07-30T05:42:34.180Z,80.80
2022-07-30T05:43:34.176Z,80.80
2022-07-30T05:44:34.179Z,81.10
2022-07-30T05:48:00.045Z,79.27
2022-07-30T05:49:00.118Z,79.57
2022-07-30T05:50:04.367Z,79.57
2022-07-30T05:51:00.041Z,79.46
2022-07-30T05:52:00.048Z,79.27
2022-07-30T05:53:00.063Z,80.92
2022-07-30T05:54:00.053Z,78.97
2022-07-30T05:55:00.070Z,79.27
2022-07-30T05:56:00.065Z,78.47
2022-07-30T05:57:00.257Z,78.73
2022-07-30T05:58:00.071Z,79.03
2022-07-30T05:59:00.073Z,78.92
2022-07-30T06:00:00.086Z,78.63
2022-07-30T06:01:00.069Z,77.63
2022-07-30T06:02:00.155Z,78.03
2022-07-30T06:03:00.071Z,77.93
2022-07-30T06:04:00.215Z,78.73
2022-07-30T06:05:00.217Z,78.73
2022-07-30T06:06:00.087Z,78.43
2022-07-30T06:07:00.324Z,78.13
2022-07-30T06:08:00.087Z,78.59
2022-07-30T06:09:00.087Z,79.03
2022-07-30T06:10:00.218Z,78.39
2022-07-30T06:11:00.094Z,78.79
2022-07-30T06:12:00.115Z,79.69
2022-07-30T06:13:00.099Z,78.99
2022-07-30T06:14:00.100Z,79.09
2022-07-30T06:15:00.110Z,79.69
2022-07-30T06:16:00.204Z,78.65
2022-07-30T06:17:00.418Z,79.25
2022-07-30T06:18:01.890Z,77.95
2022-07-30T06:19:00.111Z,77.66
2022-07-30T06:20:00.166Z,77.86
2022-07-30T06:21:00.118Z,78.85
2022-07-30T06:22:05.460Z,77.92
2022-07-30T06:23:00.124Z,77.62
2022-07-30T06:24:00.131Z,77.92
2022-07-30T06:25:00.131Z,77.52
2022-07-30T06:26:00.136Z,78.22
2022-07-30T06:27:00.381Z,78.02
2022-07-30T06:28:10.693Z,78.61
2022-07-30T06:29:00.136Z,77.52
2022-07-30T06:30:00.171Z,77.82
2022-07-30T06:31:00.292Z,78.08
2022-07-30T06:32:00.157Z,78.97
2022-07-30T06:33:00.158Z,77.68
2022-07-30T06:34:00.156Z,79.08
2022-07-30T06:35:04.539Z,77.48
2022-07-30T06:36:00.161Z,77.28
2022-07-30T06:37:00.312Z,76.59
2022-07-30T06:38:06.760Z,76.89
2022-07-30T06:39:00.171Z,77.38
2022-07-30T06:40:00.171Z,77.58
2022-07-30T06:41:02.657Z,76.06
2022-07-30T06:42:00.187Z,76.06
2022-07-30T06:43:00.193Z,77.64
2022-07-30T06:44:00.191Z,76.06
2022-07-30T06:45:00.188Z,77.41
2022-07-30T06:46:00.308Z,77.31
2022-07-30T06:47:05.266Z,76.72
2022-07-30T06:48:00.195Z,75.92
2022-07-30T06:49:00.273Z,76.51
2022-07-30T06:50:00.213Z,76.87
2022-07-30T06:51:00.207Z,77.01
2022-07-30T06:52:00.212Z,76.18
2022-07-30T06:53:00.206Z,76.28
2022-07-30T06:54:00.213Z,75.68
2022-07-30T06:55:00.246Z,75.98
2022-07-30T06:56:00.685Z,76.48
2022-07-30T06:57:00.566Z,75.68
2022-07-30T06:58:00.227Z,75.38
2022-07-30T06:59:00.229Z,74.09
2022-07-30T07:00:00.244Z,76.54
2022-07-30T07:01:00.289Z,74.76
2022-07-30T07:02:00.241Z,75.84
2022-07-30T07:03:00.248Z,76.04
2022-07-30T07:04:00.323Z,74.22
2022-07-30T07:05:00.251Z,74.22
2022-07-30T07:06:00.258Z,74.02
2022-07-30T07:07:00.473Z,73.72
2022-07-30T07:08:00.260Z,75.31
2022-07-30T07:09:00.264Z,74.42
2022-07-30T07:10:00.268Z,73.13
2022-07-30T07:11:00.271Z,73.93
2022-07-30T07:12:00.276Z,73.69
2022-07-30T07:13:00.274Z,73.00
2022-07-30T07:14:04.338Z,73.29
2022-07-30T07:15:00.282Z,73.69
2022-07-30T07:16:00.288Z,74.08
2022-07-30T07:17:00.853Z,74.19
2022-07-30T07:18:00.590Z,73.99
2022-07-30T07:19:00.299Z,73.79
2022-07-30T07:20:02.625Z,73.69
2022-07-30T07:21:00.306Z,73.99
2022-07-30T07:22:00.314Z,72.50
2022-07-30T07:23:01.624Z,73.75
2022-07-30T07:24:00.317Z,72.36
2022-07-30T07:25:00.317Z,72.76
2022-07-30T07:26:00.327Z,72.17
2022-07-30T07:27:00.553Z,72.27
2022-07-30T07:28:11.700Z,72.56
2022-07-30T07:29:04.989Z,72.33
2022-07-30T07:30:01.455Z,72.03
2022-07-30T07:31:00.403Z,71.73
2022-07-30T07:32:06.919Z,71.44
2022-07-30T07:33:00.351Z,71.64
2022-07-30T07:34:00.359Z,72.63
2022-07-30T07:35:00.367Z,72.23
2022-07-30T07:36:00.363Z,74.11
2022-07-30T07:37:00.626Z,73.28
2022-07-30T07:38:00.371Z,72.89
2022-07-30T07:39:00.377Z,74.27
2022-07-30T07:40:00.383Z,72.69
2022-07-30T07:41:00.390Z,72.00
2022-07-30T07:42:00.389Z,72.66
2022-07-30T07:43:00.397Z,73.65
2022-07-30T07:44:00.405Z,72.03
2022-07-30T07:45:00.397Z,72.56
2022-07-30T07:46:00.451Z,72.13
2022-07-30T07:47:00.795Z,71.73
2022-07-30T07:48:00.412Z,70.84
2022-07-30T07:49:00.449Z,70.94
2022-07-30T07:50:00.423Z,70.25
2022-07-30T07:51:00.922Z,70.12
2022-07-30T07:52:00.434Z,69.26
2022-07-30T07:53:00.437Z,71.00
2022-07-30T07:54:20.535Z,70.41
2022-07-30T07:55:00.443Z,70.61
2022-07-30T07:56:00.452Z,70.12
2022-07-30T07:57:02.463Z,68.79
2022-07-30T07:58:00.466Z,69.59
2022-07-30T07:59:00.464Z,69.16
2022-07-30T08:00:00.468Z,68.66
2022-07-30T08:01:00.510Z,67.87
2022-07-30T08:02:00.503Z,68.13
2022-07-30T08:03:00.483Z,69.71
2022-07-30T08:04:00.486Z,68.10
2022-07-30T08:05:00.491Z,68.17
2022-07-30T08:06:06.010Z,68.57
2022-07-30T08:07:00.756Z,66.89
2022-07-30T08:08:00.512Z,66.69
2022-07-30T08:09:00.514Z,66.75
2022-07-30T08:10:00.526Z,65.18
2022-07-30T08:11:00.523Z,66.56
2022-07-30T08:12:00.531Z,68.50
2022-07-30T08:13:00.538Z,68.89
2022-07-30T08:14:00.543Z,67.02
2022-07-30T08:15:00.559Z,68.37
2022-07-30T08:16:00.553Z,68.27
2022-07-30T08:17:01.106Z,66.20
2022-07-30T08:18:00.567Z,66.96
2022-07-30T08:19:00.573Z,66.17
2022-07-30T08:20:00.579Z,65.35
2022-07-30T08:21:00.580Z,66.82
2022-07-30T08:22:00.587Z,66.20
2022-07-30T08:23:00.594Z,67.05
2022-07-30T08:24:00.600Z,67.55
2022-07-30T08:25:00.611Z,66.24
2022-07-30T08:26:00.615Z,64.63
2022-07-30T08:27:01.028Z,64.40
2022-07-30T08:28:00.633Z,63.62
2022-07-30T08:29:00.635Z,63.68
2022-07-30T08:30:00.643Z,63.00
2022-07-30T08:31:02.504Z,63.29
2022-07-30T08:32:01.010Z,64.28
2022-07-30T08:33:00.663Z,62.77
2022-07-30T08:34:00.686Z,62.77
2022-07-30T08:35:00.681Z,61.27
2022-07-30T08:36:04.277Z,63.04
2022-07-30T08:37:00.693Z,62.81
2022-07-30T08:38:00.704Z,61.70
2022-07-30T08:39:00.717Z,60.42
2022-07-30T08:40:00.717Z,62.35
2022-07-30T08:41:00.727Z,61.57
2022-07-30T08:42:01.182Z,61.74
2022-07-30T08:43:00.746Z,62.35
2022-07-30T08:44:00.752Z,60.60
2022-07-30T08:45:00.762Z,60.00
2022-07-30T08:46:00.773Z,60.60
2022-07-30T08:47:01.084Z,60.03
2022-07-30T08:48:00.790Z,59.25
2022-07-30T08:49:05.399Z,62.12
2022-07-30T08:50:00.805Z,60.36
2022-07-30T08:51:00.812Z,61.05
2022-07-30T08:52:01.168Z,63.79
2022-07-30T08:53:00.831Z,61.93
2022-07-30T08:54:00.841Z,60.36
2022-07-30T08:55:00.851Z,60.85
2022-07-30T08:56:00.859Z,62.68
2022-07-30T08:57:00.869Z,60.52
2022-07-30T08:58:00.962Z,62.91
2022-07-30T08:59:00.889Z,62.29
2022-07-30T09:00:01.879Z,61.60
2022-07-30T09:01:00.914Z,62.58
2022-07-30T09:02:01.232Z,62.68
2022-07-30T09:03:01.020Z,63.37
2022-07-30T09:04:00.978Z,60.60
2022-07-30T09:05:00.946Z,60.17
2022-07-30T09:06:00.957Z,59.66
2022-07-30T09:07:01.268Z,60.44
2022-07-30T09:08:01.875Z,59.04
2022-07-30T09:09:00.991Z,57.87
2022-07-30T09:10:00.996Z,57.84
2022-07-30T09:11:01.004Z,58.40
2022-07-30T09:12:01.020Z,59.86
2022-07-30T09:13:01.027Z,58.01
2022-07-30T09:14:02.362Z,56.84
2022-07-30T09:15:01.044Z,58.20
2022-07-30T09:16:01.059Z,57.59
2022-07-30T09:17:01.388Z,58.01
2022-07-30T09:18:01.080Z,57.84
2022-07-30T09:19:01.101Z,58.33
2022-07-30T09:20:01.105Z,58.33
2022-07-30T09:21:01.116Z,60.08
2022-07-30T09:22:01.125Z,60.67
2022-07-30T09:23:01.142Z,59.63
2022-07-30T09:24:01.150Z,60.18
2022-07-30T09:25:01.161Z,58.91
2022-07-30T09:26:01.172Z,59.89
2022-07-30T09:27:01.563Z,59.11
2022-07-30T09:28:01.194Z,59.99
2022-07-30T09:29:01.205Z,60.86
2022-07-30T09:30:01.221Z,59.08
2022-07-30T09:31:01.229Z,60.91
2022-07-30T09:32:01.740Z,57.88
2022-07-30T09:33:01.254Z,57.36
2022-07-30T09:34:01.265Z,55.29
2022-07-30T09:35:01.274Z,57.79
2022-07-30T09:36:01.290Z,57.76
2022-07-30T09:37:01.297Z,57.71
2022-07-30T09:38:06.000Z,55.35
2022-07-30T09:39:01.328Z,54.57
2022-07-30T09:40:01.338Z,55.54
2022-07-30T09:41:08.133Z,54.47
2022-07-30T09:42:01.656Z,55.83
2022-07-30T09:43:01.375Z,55.54
2022-07-30T09:44:01.393Z,57.65
2022-07-30T09:45:01.418Z,57.56
2022-07-30T09:46:01.419Z,55.10
2022-07-30T09:47:01.430Z,55.58
2022-07-30T09:48:01.449Z,56.07
2022-07-30T09:49:01.516Z,55.10
2022-07-30T09:50:07.074Z,55.41
2022-07-30T09:51:01.488Z,54.44
2022-07-30T09:52:01.649Z,56.81
2022-07-30T09:53:01.509Z,54.96
2022-07-30T09:54:01.571Z,54.66
2022-07-30T09:55:01.544Z,55.40
2022-07-30T09:56:01.554Z,56.09
2022-07-30T09:57:01.977Z,56.11
2022-07-30T09:58:01.682Z,55.62
2022-07-30T09:59:01.597Z,57.70
2022-07-30T10:00:01.767Z,56.33
2022-07-30T10:01:01.625Z,55.58
2022-07-30T10:02:04.074Z,56.65
2022-07-30T10:03:12.642Z,57.56
2022-07-30T10:04:01.663Z,57.20
2022-07-30T10:05:01.677Z,56.22
2022-07-30T10:06:03.006Z,58.59
2022-07-30T10:07:01.708Z,58.50
2022-07-30T10:08:06.651Z,60.47
2022-07-30T10:09:01.731Z,60.38
2022-07-30T10:10:01.746Z,59.33
2022-07-30T10:11:08.585Z,60.50
2022-07-30T10:12:02.474Z,60.05
2022-07-30T10:13:04.261Z,60.83
2022-07-30T10:14:01.797Z,60.24
2022-07-30T10:15:01.818Z,58.78
2022-07-30T10:16:01.825Z,60.73
2022-07-30T10:17:02.871Z,60.96
2022-07-30T10:18:01.852Z,60.57
2022-07-30T10:19:01.868Z,62.03
2022-07-30T10:20:02.896Z,60.96
2022-07-30T10:21:01.891Z,60.21
2022-07-30T10:22:02.197Z,60.30
2022-07-30T10:23:08.283Z,62.16
2022-07-30T10:24:01.927Z,60.40
2022-07-30T10:25:01.938Z,60.50
2022-07-30T10:26:03.707Z,60.79
2022-07-30T10:27:02.401Z,60.60
2022-07-30T10:28:03.142Z,62.06
2022-07-30T10:29:02.052Z,60.60
2022-07-30T10:30:03.475Z,60.69
2022-07-30T10:31:02.010Z,61.74
2022-07-30T10:32:02.023Z,62.13
2022-07-30T10:33:02.039Z,60.08
2022-07-30T10:34:02.050Z,60.76
2022-07-30T10:35:02.062Z,62.23
2022-07-30T10:36:02.708Z,61.74
2022-07-30T10:37:04.549Z,60.47
2022-07-30T10:38:02.092Z,59.98
2022-07-30T10:39:02.107Z,60.53
2022-07-30T10:40:02.964Z,59.07
2022-07-30T10:41:02.134Z,60.44
2022-07-30T10:42:02.138Z,61.51
2022-07-30T10:43:02.154Z,60.34
2022-07-30T10:44:02.164Z,61.71
2022-07-30T10:45:02.177Z,60.24
2022-07-30T10:46:02.814Z,59.75
2022-07-30T10:47:07.015Z,58.18
2022-07-30T10:48:02.211Z,58.68
2022-07-30T10:49:02.271Z,60.34
2022-07-30T10:50:02.232Z,58.38
2022-07-30T10:51:02.250Z,58.28
2022-07-30T10:52:02.263Z,58.78
2022-07-30T10:53:02.269Z,58.97
2022-07-30T10:54:02.288Z,58.97
2022-07-30T10:55:02.293Z,58.97
2022-07-30T10:56:02.304Z,58.38
2022-07-30T10:57:02.680Z,58.97
2022-07-30T10:58:02.327Z,58.75
2022-07-30T10:59:02.852Z,58.16
2022-07-30T11:00:04.088Z,58.65
2022-07-30T11:01:02.364Z,57.93
2022-07-30T11:02:02.919Z,59.89
2022-07-30T11:03:02.385Z,58.52
2022-07-30T11:04:02.398Z,58.13
2022-07-30T11:05:02.409Z,58.23
2022-07-30T11:06:02.419Z,58.65
2022-07-30T11:07:02.429Z,59.40
2022-07-30T11:08:02.447Z,58.33
2022-07-30T11:09:02.457Z,58.16
2022-07-30T11:10:09.022Z,58.26
2022-07-30T11:11:16.205Z,59.23
2022-07-30T11:12:06.483Z,58.72
2022-07-30T11:13:02.499Z,58.52
2022-07-30T11:14:02.512Z,57.64
2022-07-30T11:15:06.856Z,57.67
2022-07-30T11:16:02.541Z,58.45
2022-07-30T11:17:02.546Z,58.58
2022-07-30T11:18:02.559Z,58.38
2022-07-30T11:19:27.441Z,57.99
2022-07-30T11:20:02.584Z,58.09
2022-07-30T11:21:02.595Z,58.48
2022-07-30T11:22:03.054Z,58.68
2022-07-30T11:23:02.617Z,57.99
2022-07-30T11:24:02.627Z,58.61
2022-07-30T11:25:12.488Z,59.29
2022-07-30T11:26:02.650Z,58.31
2022-07-30T11:27:02.682Z,60.08
2022-07-30T11:28:02.675Z,58.70
2022-07-30T11:29:02.684Z,60.76
2022-07-30T11:30:02.697Z,59.59
2022-07-30T11:31:09.923Z,58.05
2022-07-30T11:32:06.782Z,58.83
2022-07-30T11:33:02.738Z,59.81
2022-07-30T11:34:02.745Z,58.83
2022-07-30T11:35:02.754Z,58.73
2022-07-30T11:36:02.768Z,58.25
2022-07-30T11:37:02.779Z,58.73
2022-07-30T11:38:02.790Z,59.98
2022-07-30T11:39:06.857Z,60.66
2022-07-30T11:40:02.814Z,58.61
2022-07-30T11:41:02.825Z,58.70
2022-07-30T11:42:03.411Z,60.30
2022-07-30T11:43:02.848Z,58.25
2022-07-30T11:44:02.855Z,58.64
2022-07-30T11:45:04.202Z,60.21
2022-07-30T11:46:02.881Z,58.34
2022-07-30T11:47:02.888Z,57.86
2022-07-30T11:48:02.903Z,58.34
2022-07-30T11:49:03.054Z,58.15
2022-07-30T11:50:02.922Z,58.15
2022-07-30T11:51:04.100Z,58.64
2022-07-30T11:52:03.367Z,57.95
2022-07-30T11:53:02.967Z,58.83
2022-07-30T11:54:02.964Z,59.12
2022-07-30T11:55:02.975Z,58.90
2022-07-30T11:56:02.992Z,58.70
2022-07-30T11:57:04.748Z,58.02
2022-07-30T11:58:03.013Z,58.51
2022-07-30T11:59:03.029Z,58.38
2022-07-30T12:00:03.037Z,56.72
2022-07-30T12:01:03.043Z,59.23
2022-07-30T12:02:03.381Z,58.62
2022-07-30T12:03:04.311Z,57.74
2022-07-30T12:04:03.075Z,55.88
2022-07-30T12:05:03.091Z,56.37
2022-07-30T12:06:03.101Z,56.86
2022-07-30T12:07:03.456Z,56.37
2022-07-30T12:08:03.125Z,55.98
2022-07-30T12:09:03.133Z,57.81
2022-07-30T12:10:03.144Z,57.42
2022-07-30T12:11:03.157Z,56.61
2022-07-30T12:12:03.166Z,55.87
2022-07-30T12:13:03.183Z,57.11
2022-07-30T12:14:03.194Z,54.75
2022-07-30T12:15:03.209Z,55.69
2022-07-30T12:16:03.214Z,55.33
2022-07-30T12:17:03.671Z,55.79
2022-07-30T12:18:25.376Z,55.60
2022-07-30T12:19:03.249Z,54.75
2022-07-30T12:20:03.259Z,52.89
2022-07-30T12:21:03.277Z,55.36
2022-07-30T12:22:03.284Z,54.50
2022-07-30T12:23:03.297Z,55.61
2022-07-30T12:24:03.317Z,55.80
2022-07-30T12:25:03.322Z,55.54
2022-07-30T12:26:03.335Z,55.66
2022-07-30T12:27:03.961Z,55.47
2022-07-30T12:28:03.358Z,56.35
2022-07-30T12:29:03.375Z,56.08
2022-07-30T12:30:03.385Z,55.40
2022-07-30T12:31:03.397Z,55.88
2022-07-30T12:32:03.408Z,56.86
2022-07-30T12:33:03.423Z,58.33
2022-07-30T12:34:03.432Z,56.25
2022-07-30T12:35:03.444Z,55.30
2022-07-30T12:36:03.459Z,56.08
2022-07-30T12:37:03.938Z,56.18
2022-07-30T12:38:03.480Z,56.70
2022-07-30T12:39:03.493Z,56.40
2022-07-30T12:40:03.498Z,56.30
2022-07-30T12:41:03.518Z,56.52
2022-07-30T12:42:03.530Z,56.33
2022-07-30T12:43:03.545Z,56.52
2022-07-30T12:44:03.561Z,56.46
2022-07-30T12:45:03.560Z,57.73
2022-07-30T12:46:03.574Z,57.92
2022-07-30T12:47:04.695Z,57.46
2022-07-30T12:48:03.592Z,56.68
2022-07-30T12:49:08.907Z,57.78
2022-07-30T12:50:03.666Z,58.07
2022-07-30T12:51:03.635Z,58.86
2022-07-30T12:52:03.648Z,58.76
2022-07-30T12:53:03.664Z,58.20
2022-07-30T12:54:03.664Z,58.47
2022-07-30T12:55:03.676Z,58.67